sensor_id;sensor_type;location;lat;lon;timestamp;pressure;altitude;pressure_sealevel;temperature;humidity
23241;BME280;11789;53.482;9.862;2023-09-30T00:00:31;102208.84;;;13.16;100.00
23241;BME280;11789;53.482;9.862;2023-09-30T00:02:58;102209.72;;;13.15;100.00
23241;BME280;11789;53.482;9.862;2023-09-30T00:05:25;102222.69;;;13.13;100.00
23241;BME280;11789;53.482;9.862;2023-09-30T00:07:51;102215.66;;;13.06;100.00
23241;BME280;11789;53.482;9.862;2023-09-30T00:10:16;102219.94;;;12.99;100.00
23241;BME280;11789;53.482;9.862;2023-09-30T00:12:42;102212.97;;;12.94;100.00
23241;BME280;11789;53.482;9.862;2023-09-30T00:15:08;102222.47;;;12.96;100.00
23241;BME280;11789;53.482;9.862;2023-09-30T00:17:34;102219.87;;;12.93;100.00
23241;BME280;11789;53.482;9.862;2023-09-30T00:19:59;102220.75;;;12.97;100.00
23241;BME280;11789;53.482;9.862;2023-09-30T00:22:25;102221.62;;;12.97;100.00
23241;BME280;11789;53.482;9.862;2023-09-30T00:24:50;102220.75;;;12.94;100.00
23241;BME280;11789;53.482;9.862;2023-09-30T00:27:16;102239.72;;;12.90;100.00
23241;BME280;11789;53.482;9.862;2023-09-30T00:29:44;102242.38;;;12.94;100.00
23241;BME280;11789;53.482;9.862;2023-09-30T00:32:10;102239.72;;;12.90;100.00
23241;BME280;11789;53.482;9.862;2023-09-30T00:34:35;102248.38;;;12.92;100.00
23241;BME280;11789;53.482;9.862;2023-09-30T00:37:01;102251.03;;;12.95;100.00
23241;BME280;11789;53.482;9.862;2023-09-30T00:39:27;102244.97;;;12.93;100.00
23241;BME280;11789;53.482;9.862;2023-09-30T00:41:56;102243.19;;;12.89;100.00
23241;BME280;11789;53.482;9.862;2023-09-30T00:44:26;102239.72;;;12.90;100.00
23241;BME280;11789;53.482;9.862;2023-09-30T00:46:54;102238.84;;;12.88;100.00
23241;BME280;11789;53.482;9.862;2023-09-30T00:49:21;102247.47;;;12.87;100.00
23241;BME280;11789;53.482;9.862;2023-09-30T00:51:48;102243.19;;;12.90;100.00
23241;BME280;11789;53.482;9.862;2023-09-30T00:54:15;102250.13;;;12.91;100.00
23241;BME280;11789;53.482;9.862;2023-09-30T00:56:46;102251.91;;;12.95;100.00
23241;BME280;11789;53.482;9.862;2023-09-30T00:59:15;102248.47;;;12.98;100.00
23241;BME280;11789;53.482;9.862;2023-09-30T01:01:45;102257.09;;;12.94;100.00
23241;BME280;11789;53.482;9.862;2023-09-30T01:04:12;102250.97;;;12.92;100.00
23241;BME280;11789;53.482;9.862;2023-09-30T01:06:38;102249.25;;;12.91;100.00
23241;BME280;11789;53.482;9.862;2023-09-30T01:09:03;102250.16;;;12.93;100.00
23241;BME280;11789;53.482;9.862;2023-09-30T01:11:29;102254.44;;;12.91;100.00
23241;BME280;11789;53.482;9.862;2023-09-30T01:13:55;102249.25;;;12.91;100.00
23241;BME280;11789;53.482;9.862;2023-09-30T01:16:22;102253.56;;;12.89;100.00
23241;BME280;11789;53.482;9.862;2023-09-30T01:18:49;102252.62;;;12.85;100.00
23241;BME280;11789;53.482;9.862;2023-09-30T01:21:14;102247.37;;;12.79;100.00
23241;BME280;11789;53.482;9.862;2023-09-30T01:23:40;102249.06;;;12.77;100.00
23241;BME280;11789;53.482;9.862;2023-09-30T01:26:08;102252.50;;;12.73;100.00
23241;BME280;11789;53.482;9.862;2023-09-30T01:28:34;102251.66;;;12.74;100.00
23241;BME280;11789;53.482;9.862;2023-09-30T01:31:00;102258.53;;;12.72;100.00
23241;BME280;11789;53.482;9.862;2023-09-30T01:33:26;102245.47;;;12.64;100.00
23241;BME280;11789;53.482;9.862;2023-09-30T01:35:52;102257.63;;;12.68;100.00
23241;BME280;11789;53.482;9.862;2023-09-30T01:38:18;102256.72;;;12.65;100.00
23241;BME280;11789;53.482;9.862;2023-09-30T01:40:44;102259.31;;;12.66;100.00
23241;BME280;11789;53.482;9.862;2023-09-30T01:43:09;102257.59;;;12.65;100.00
23241;BME280;11789;53.482;9.862;2023-09-30T01:45:38;102256.69;;;12.63;100.00
23241;BME280;11789;53.482;9.862;2023-09-30T01:48:04;102260.97;;;12.58;100.00
23241;BME280;11789;53.482;9.862;2023-09-30T01:50:29;102268.66;;;12.52;100.00
23241;BME280;11789;53.482;9.862;2023-09-30T01:52:55;102268.59;;;12.48;100.00
23241;BME280;11789;53.482;9.862;2023-09-30T01:55:20;102273.78;;;12.48;100.00
23241;BME280;11789;53.482;9.862;2023-09-30T01:57:46;102274.63;;;12.46;100.00
23241;BME280;11789;53.482;9.862;2023-09-30T02:00:11;102283.25;;;12.44;100.00
23241;BME280;11789;53.482;9.862;2023-09-30T02:02:38;102283.28;;;12.47;100.00
23241;BME280;11789;53.482;9.862;2023-09-30T02:05:04;102284.13;;;12.46;100.00
23241;BME280;11789;53.482;9.862;2023-09-30T02:07:29;102280.72;;;12.49;100.00
23241;BME280;11789;53.482;9.862;2023-09-30T02:09:55;102284.19;;;12.49;100.00
23241;BME280;11789;53.482;9.862;2023-09-30T02:12:21;102282.38;;;12.45;100.00
23241;BME280;11789;53.482;9.862;2023-09-30T02:14:46;102284.97;;;12.45;100.00
23241;BME280;11789;53.482;9.862;2023-09-30T02:17:12;102281.50;;;12.44;100.00
23241;BME280;11789;53.482;9.862;2023-09-30T02:19:39;102287.56;;;12.43;100.00
23241;BME280;11789;53.482;9.862;2023-09-30T02:22:06;102277.19;;;12.45;100.00
23241;BME280;11789;53.482;9.862;2023-09-30T02:24:32;102284.09;;;12.43;100.00
23241;BME280;11789;53.482;9.862;2023-09-30T02:26:57;102284.03;;;12.40;100.00
23241;BME280;11789;53.482;9.862;2023-09-30T02:29:23;102283.16;;;12.39;100.00
23241;BME280;11789;53.482;9.862;2023-09-30T02:31:49;102278.84;;;12.38;100.00
23241;BME280;11789;53.482;9.862;2023-09-30T02:34:14;102275.38;;;12.39;100.00
23241;BME280;11789;53.482;9.862;2023-09-30T02:36:40;102281.44;;;12.38;100.00
23241;BME280;11789;53.482;9.862;2023-09-30T02:39:05;102280.59;;;12.41;100.00
23241;BME280;11789;53.482;9.862;2023-09-30T02:41:33;102288.34;;;12.39;100.00
23241;BME280;11789;53.482;9.862;2023-09-30T02:43:58;102295.34;;;12.43;100.00
23241;BME280;11789;53.482;9.862;2023-09-30T02:46:24;102296.97;;;12.37;100.00
23241;BME280;11789;53.482;9.862;2023-09-30T02:48:51;102299.44;;;12.29;100.00
23241;BME280;11789;53.482;9.862;2023-09-30T02:51:17;102295.13;;;12.31;100.00
23241;BME280;11789;53.482;9.862;2023-09-30T02:53:42;102297.72;;;12.30;100.00
23241;BME280;11789;53.482;9.862;2023-09-30T02:56:08;102280.34;;;12.23;100.00
23241;BME280;11789;53.482;9.862;2023-09-30T02:58:33;102291.56;;;12.23;100.00
23241;BME280;11789;53.482;9.862;2023-09-30T03:00:59;102295.94;;;12.26;100.00
23241;BME280;11789;53.482;9.862;2023-09-30T03:03:24;102293.31;;;12.24;100.00
23241;BME280;11789;53.482;9.862;2023-09-30T03:05:50;102293.31;;;12.26;100.00
23241;BME280;11789;53.482;9.862;2023-09-30T03:08:16;102289.84;;;12.24;100.00
23241;BME280;11789;53.482;9.862;2023-09-30T03:10:41;102287.19;;;12.20;100.00
23241;BME280;11789;53.482;9.862;2023-09-30T03:13:07;102293.25;;;12.19;100.00
23241;BME280;11789;53.482;9.862;2023-09-30T03:15:35;102296.69;;;12.20;100.00
23241;BME280;11789;53.482;9.862;2023-09-30T03:18:01;102287.25;;;12.22;100.00
23241;BME280;11789;53.482;9.862;2023-09-30T03:20:27;102297.56;;;12.20;100.00
23241;BME280;11789;53.482;9.862;2023-09-30T03:22:52;102301.88;;;12.20;100.00
23241;BME280;11789;53.482;9.862;2023-09-30T03:25:19;102295.75;;;12.13;100.00
23241;BME280;11789;53.482;9.862;2023-09-30T03:27:46;102285.38;;;12.13;100.00
23241;BME280;11789;53.482;9.862;2023-09-30T03:30:13;102290.56;;;12.13;100.00
23241;BME280;11789;53.482;9.862;2023-09-30T03:32:39;102286.19;;;12.11;100.00
23241;BME280;11789;53.482;9.862;2023-09-30T03:35:05;102294.03;;;12.15;100.00
23241;BME280;11789;53.482;9.862;2023-09-30T03:37:32;102291.50;;;12.17;100.00
23241;BME280;11789;53.482;9.862;2023-09-30T03:39:57;102299.22;;;12.15;100.00
23241;BME280;11789;53.482;9.862;2023-09-30T03:42:23;102301.81;;;12.15;100.00
23241;BME280;11789;53.482;9.862;2023-09-30T03:44:49;102292.31;;;12.14;100.00
23241;BME280;11789;53.482;9.862;2023-09-30T03:47:15;102287.97;;;12.15;100.00
23241;BME280;11789;53.482;9.862;2023-09-30T03:49:42;102289.62;;;12.10;100.00
23241;BME280;11789;53.482;9.862;2023-09-30T03:52:10;102286.16;;;12.09;100.00
23241;BME280;11789;53.482;9.862;2023-09-30T03:55:05;102290.47;;;12.07;100.00
23241;BME280;11789;53.482;9.862;2023-09-30T03:57:34;102296.53;;;12.08;100.00
23241;BME280;11789;53.482;9.862;2023-09-30T04:00:00;102308.56;;;12.06;100.00
23241;BME280;11789;53.482;9.862;2023-09-30T04:02:26;102299.97;;;12.07;100.00
23241;BME280;11789;53.482;9.862;2023-09-30T04:04:51;102307.69;;;12.05;100.00
23241;BME280;11789;53.482;9.862;2023-09-30T04:07:19;102300.78;;;12.06;100.00
23241;BME280;11789;53.482;9.862;2023-09-30T04:09:45;102294.75;;;12.05;100.00
23241;BME280;11789;53.482;9.862;2023-09-30T04:12:11;102299.12;;;12.08;100.00
23241;BME280;11789;53.482;9.862;2023-09-30T04:14:37;102298.19;;;12.04;100.00
23241;BME280;11789;53.482;9.862;2023-09-30T04:17:02;102304.16;;;12.00;100.00
23241;BME280;11789;53.482;9.862;2023-09-30T04:19:29;102308.47;;;11.98;100.00
23241;BME280;11789;53.482;9.862;2023-09-30T04:21:56;102311.91;;;11.99;100.00
23241;BME280;11789;53.482;9.862;2023-09-30T04:24:21;102312.78;;;11.99;100.00
23241;BME280;11789;53.482;9.862;2023-09-30T04:26:47;102314.50;;;11.97;100.00
23241;BME280;11789;53.482;9.862;2023-09-30T04:29:15;102311.84;;;11.95;100.00
23241;BME280;11789;53.482;9.862;2023-09-30T04:31:41;102310.19;;;11.98;100.00
23241;BME280;11789;53.482;9.862;2023-09-30T04:34:08;102320.59;;;12.01;100.00
23241;BME280;11789;53.482;9.862;2023-09-30T04:36:33;102313.66;;;12.00;100.00
23241;BME280;11789;53.482;9.862;2023-09-30T04:39:01;102319.72;;;12.00;100.00
23241;BME280;11789;53.482;9.862;2023-09-30T04:41:28;102309.31;;;11.97;100.00
23241;BME280;11789;53.482;9.862;2023-09-30T04:43:53;102317.09;;;11.97;100.00
23241;BME280;11789;53.482;9.862;2023-09-30T04:46:19;102318.75;;;11.95;100.00
23241;BME280;11789;53.482;9.862;2023-09-30T04:48:48;102330.09;;;12.00;100.00
23241;BME280;11789;53.482;9.862;2023-09-30T04:51:13;102326.59;;;11.98;100.00
23241;BME280;11789;53.482;9.862;2023-09-30T04:53:41;102331.78;;;11.97;100.00
23241;BME280;11789;53.482;9.862;2023-09-30T04:56:07;102323.16;;;11.99;100.00
23241;BME280;11789;53.482;9.862;2023-09-30T04:58:32;102318.84;;;12.00;100.00
23241;BME280;11789;53.482;9.862;2023-09-30T05:00:58;102320.50;;;11.96;100.00
23241;BME280;11789;53.482;9.862;2023-09-30T05:03:23;102325.69;;;11.96;100.00
23241;BME280;11789;53.482;9.862;2023-09-30T05:05:53;102330.88;;;11.96;100.00
23241;BME280;11789;53.482;9.862;2023-09-30T05:08:21;102334.31;;;11.95;100.00
23241;BME280;11789;53.482;9.862;2023-09-30T05:10:46;102331.78;;;11.97;100.00
23241;BME280;11789;53.482;9.862;2023-09-30T05:13:12;102328.28;;;11.96;100.00
23241;BME280;11789;53.482;9.862;2023-09-30T05:15:37;102323.09;;;11.96;100.00
23241;BME280;11789;53.482;9.862;2023-09-30T05:18:03;102335.22;;;11.97;100.00
23241;BME280;11789;53.482;9.862;2023-09-30T05:20:30;102340.41;;;11.97;100.00
23241;BME280;11789;53.482;9.862;2023-09-30T05:22:55;102339.66;;;12.03;100.00
23241;BME280;11789;53.482;9.862;2023-09-30T05:25:21;102331.81;;;12.01;100.00
23241;BME280;11789;53.482;9.862;2023-09-30T05:27:51;102337.84;;;12.00;100.00
23241;BME280;11789;53.482;9.862;2023-09-30T05:30:17;102343.03;;;12.00;100.00
23241;BME280;11789;53.482;9.862;2023-09-30T05:32:44;102337.00;;;12.01;100.00
23241;BME280;11789;53.482;9.862;2023-09-30T05:35:12;102353.41;;;12.00;100.00
23241;BME280;11789;53.482;9.862;2023-09-30T05:37:41;102356.09;;;12.06;100.00
23241;BME280;11789;53.482;9.862;2023-09-30T05:40:08;102345.63;;;12.00;100.00
23241;BME280;11789;53.482;9.862;2023-09-30T05:42:48;102349.94;;;12.00;100.00
23241;BME280;11789;53.482;9.862;2023-09-30T05:45:16;102357.75;;;12.01;100.00
23241;BME280;11789;53.482;9.862;2023-09-30T05:47:42;102365.56;;;12.03;100.00
23241;BME280;11789;53.482;9.862;2023-09-30T05:50:09;102366.34;;;11.99;100.00
23241;BME280;11789;53.482;9.862;2023-09-30T05:52:40;102357.72;;;12.00;100.00
23241;BME280;11789;53.482;9.862;2023-09-30T05:55:06;102368.97;;;12.00;100.00
23241;BME280;11789;53.482;9.862;2023-09-30T05:57:32;102374.19;;;12.02;100.00
23241;BME280;11789;53.482;9.862;2023-09-30T05:59:58;102381.12;;;12.04;100.00
23241;BME280;11789;53.482;9.862;2023-09-30T06:02:23;102382.03;;;12.06;100.00
23241;BME280;11789;53.482;9.862;2023-09-30T06:04:49;102388.12;;;12.08;100.00
23241;BME280;11789;53.482;9.862;2023-09-30T06:07:17;102385.53;;;12.08;100.00
23241;BME280;11789;53.482;9.862;2023-09-30T06:09:45;102381.22;;;12.10;100.00
23241;BME280;11789;53.482;9.862;2023-09-30T06:12:12;102380.34;;;12.08;100.00
23241;BME280;11789;53.482;9.862;2023-09-30T06:14:37;102381.19;;;12.07;100.00
23241;BME280;11789;53.482;9.862;2023-09-30T06:17:03;102401.12;;;12.11;100.00
23241;BME280;11789;53.482;9.862;2023-09-30T06:19:28;102392.47;;;12.09;100.00
23241;BME280;11789;53.482;9.862;2023-09-30T06:21:54;102396.78;;;12.10;100.00
23241;BME280;11789;53.482;9.862;2023-09-30T06:24:19;102390.72;;;12.08;100.00
23241;BME280;11789;53.482;9.862;2023-09-30T06:26:45;102395.03;;;12.08;100.00
23241;BME280;11789;53.482;9.862;2023-09-30T06:29:14;102401.97;;;12.09;100.00
23241;BME280;11789;53.482;9.862;2023-09-30T06:31:39;102403.72;;;12.11;100.00
23241;BME280;11789;53.482;9.862;2023-09-30T06:34:05;102408.88;;;12.08;100.00
23241;BME280;11789;53.482;9.862;2023-09-30T06:36:32;102408.00;;;12.09;100.00
23241;BME280;11789;53.482;9.862;2023-09-30T06:38:57;102411.47;;;12.10;100.00
23241;BME280;11789;53.482;9.862;2023-09-30T06:41:24;102410.66;;;12.12;100.00
23241;BME280;11789;53.482;9.862;2023-09-30T06:43:50;102417.69;;;12.18;100.00
23241;BME280;11789;53.482;9.862;2023-09-30T06:46:17;102412.56;;;12.23;100.00
23241;BME280;11789;53.482;9.862;2023-09-30T06:48:45;102421.25;;;12.25;100.00
23241;BME280;11789;53.482;9.862;2023-09-30T06:51:14;102421.31;;;12.28;100.00
23241;BME280;11789;53.482;9.862;2023-09-30T06:53:40;102421.41;;;12.35;100.00
23241;BME280;11789;53.482;9.862;2023-09-30T06:56:06;102416.31;;;12.38;100.00
23241;BME280;11789;53.482;9.862;2023-09-30T06:58:31;102423.28;;;12.42;100.00
23241;BME280;11789;53.482;9.862;2023-09-30T07:00:57;102421.59;;;12.46;100.00
23241;BME280;11789;53.482;9.862;2023-09-30T07:03:22;102420.81;;;12.50;100.00
23241;BME280;11789;53.482;9.862;2023-09-30T07:05:48;102425.19;;;12.53;100.00
23241;BME280;11789;53.482;9.862;2023-09-30T07:08:17;102433.91;;;12.58;100.00
23241;BME280;11789;53.482;9.862;2023-09-30T07:10:44;102437.38;;;12.58;100.00
23241;BME280;11789;53.482;9.862;2023-09-30T07:13:11;102434.88;;;12.64;100.00
23241;BME280;11789;53.482;9.862;2023-09-30T07:15:37;102446.19;;;12.69;100.00
23241;BME280;11789;53.482;9.862;2023-09-30T07:18:03;102446.28;;;12.74;100.00
23241;BME280;11789;53.482;9.862;2023-09-30T07:20:28;102445.50;;;12.80;100.00
23241;BME280;11789;53.482;9.862;2023-09-30T07:22:59;102445.50;;;12.81;100.00
23241;BME280;11789;53.482;9.862;2023-09-30T07:25:25;102451.63;;;12.83;100.00
23241;BME280;11789;53.482;9.862;2023-09-30T07:27:50;102462.88;;;12.85;100.00
23241;BME280;11789;53.482;9.862;2023-09-30T07:30:16;102466.41;;;12.90;100.00
23241;BME280;11789;53.482;9.862;2023-09-30T07:32:42;102473.41;;;12.96;100.00
23241;BME280;11789;53.482;9.862;2023-09-30T07:35:08;102464.91;;;13.03;100.00
23241;BME280;11789;53.482;9.862;2023-09-30T07:37:33;102465.00;;;13.12;100.00
23241;BME280;11789;53.482;9.862;2023-09-30T07:39:59;102460.72;;;13.16;100.00
23241;BME280;11789;53.482;9.862;2023-09-30T07:42:25;102459.97;;;13.21;100.00
23241;BME280;11789;53.482;9.862;2023-09-30T07:44:50;102460.91;;;13.27;100.00
23241;BME280;11789;53.482;9.862;2023-09-30T07:47:17;102454.91;;;13.31;100.00
23241;BME280;11789;53.482;9.862;2023-09-30T07:49:42;102464.50;;;13.35;100.00
23241;BME280;11789;53.482;9.862;2023-09-30T07:52:08;102466.31;;;13.42;100.00
23241;BME280;11789;53.482;9.862;2023-09-30T07:54:34;102465.50;;;13.47;100.00
23241;BME280;11789;53.482;9.862;2023-09-30T07:56:59;102470.78;;;13.52;100.00
23241;BME280;11789;53.482;9.862;2023-09-30T07:59:25;102461.31;;;13.57;100.00
23241;BME280;11789;53.482;9.862;2023-09-30T08:01:51;102466.56;;;13.60;100.00
23241;BME280;11789;53.482;9.862;2023-09-30T08:04:20;102479.56;;;13.63;100.00
23241;BME280;11789;53.482;9.862;2023-09-30T08:06:45;102477.03;;;13.66;100.00
23241;BME280;11789;53.482;9.862;2023-09-30T08:09:14;102478.75;;;13.67;100.00
23241;BME280;11789;53.482;9.862;2023-09-30T08:11:40;102472.75;;;13.71;100.00
23241;BME280;11789;53.482;9.862;2023-09-30T08:14:06;102484.03;;;13.73;100.00
23241;BME280;11789;53.482;9.862;2023-09-30T08:16:34;102480.59;;;13.74;100.00
23241;BME280;11789;53.482;9.862;2023-09-30T08:18:59;102487.59;;;13.82;100.00
23241;BME280;11789;53.482;9.862;2023-09-30T08:21:25;102490.25;;;13.86;100.00
23241;BME280;11789;53.482;9.862;2023-09-30T08:23:50;102492.00;;;13.89;100.00
23241;BME280;11789;53.482;9.862;2023-09-30T08:26:16;102487.75;;;13.94;100.00
23241;BME280;11789;53.482;9.862;2023-09-30T08:28:41;102489.56;;;14.02;100.00
23241;BME280;11789;53.482;9.862;2023-09-30T08:31:07;102500.91;;;14.08;100.00
23241;BME280;11789;53.482;9.862;2023-09-30T08:33:34;102500.03;;;14.07;100.00
23241;BME280;11789;53.482;9.862;2023-09-30T08:36:04;102502.62;;;14.09;100.00
23241;BME280;11789;53.482;9.862;2023-09-30T08:38:35;102506.16;;;14.11;100.00
23241;BME280;11789;53.482;9.862;2023-09-30T08:41:01;102507.84;;;14.09;100.00
23241;BME280;11789;53.482;9.862;2023-09-30T08:43:28;102507.87;;;14.12;100.00
23241;BME280;11789;53.482;9.862;2023-09-30T08:45:59;102500.13;;;14.15;100.00
23241;BME280;11789;53.482;9.862;2023-09-30T08:48:28;102501.00;;;14.15;100.00
23241;BME280;11789;53.482;9.862;2023-09-30T08:50:56;102503.59;;;14.17;100.00
23241;BME280;11789;53.482;9.862;2023-09-30T08:53:23;102494.97;;;14.19;100.00
23241;BME280;11789;53.482;9.862;2023-09-30T08:55:53;102504.53;;;14.22;100.00
23241;BME280;11789;53.482;9.862;2023-09-30T08:58:21;102508.03;;;14.27;100.00
23241;BME280;11789;53.482;9.862;2023-09-30T09:00:49;102515.03;;;14.30;100.00
23241;BME280;11789;53.482;9.862;2023-09-30T09:03:17;102521.97;;;14.32;100.00
23241;BME280;11789;53.482;9.862;2023-09-30T09:05:43;102518.56;;;14.38;100.00
23241;BME280;11789;53.482;9.862;2023-09-30T09:08:08;102522.06;;;14.43;100.00
23241;BME280;11789;53.482;9.862;2023-09-30T09:10:34;102519.47;;;14.44;100.00
23241;BME280;11789;53.482;9.862;2023-09-30T09:13:00;102523.84;;;14.47;100.00
23241;BME280;11789;53.482;9.862;2023-09-30T09:15:27;102531.75;;;14.51;100.00
23241;BME280;11789;53.482;9.862;2023-09-30T09:17:56;102529.25;;;14.61;100.00
23241;BME280;11789;53.482;9.862;2023-09-30T09:20:23;102531.87;;;14.67;100.00
23241;BME280;11789;53.482;9.862;2023-09-30T09:22:53;102526.72;;;14.71;100.00
23241;BME280;11789;53.482;9.862;2023-09-30T09:25:24;102531.97;;;14.76;100.00
23241;BME280;11789;53.482;9.862;2023-09-30T09:27:51;102531.13;;;14.78;100.00
23241;BME280;11789;53.482;9.862;2023-09-30T09:30:25;102525.94;;;14.82;100.00
23241;BME280;11789;53.482;9.862;2023-09-30T09:33:05;102530.28;;;14.84;100.00
23241;BME280;11789;53.482;9.862;2023-09-30T09:35:33;102533.81;;;14.88;100.00
23241;BME280;11789;53.482;9.862;2023-09-30T09:38:03;102532.06;;;14.88;100.00
23241;BME280;11789;53.482;9.862;2023-09-30T09:40:36;102540.78;;;14.93;100.00
23241;BME280;11789;53.482;9.862;2023-09-30T09:43:06;102537.31;;;14.94;100.00
23241;BME280;11789;53.482;9.862;2023-09-30T09:45:36;102533.00;;;14.96;100.00
23241;BME280;11789;53.482;9.862;2023-09-30T09:48:04;102530.41;;;14.96;100.00
23241;BME280;11789;53.482;9.862;2023-09-30T09:50:30;102539.97;;;14.97;100.00
23241;BME280;11789;53.482;9.862;2023-09-30T09:52:59;102543.44;;;14.98;100.00
23241;BME280;11789;53.482;9.862;2023-09-30T09:55:26;102546.03;;;14.99;100.00
23241;BME280;11789;53.482;9.862;2023-09-30T09:57:53;102542.59;;;15.02;100.00
23241;BME280;11789;53.482;9.862;2023-09-30T10:00:21;102540.00;;;15.05;100.00
23241;BME280;11789;53.482;9.862;2023-09-30T10:02:49;102528.75;;;15.06;100.00
23241;BME280;11789;53.482;9.862;2023-09-30T10:05:16;102527.00;;;15.10;100.00
23241;BME280;11789;53.482;9.862;2023-09-30T10:07:51;102522.69;;;15.12;100.00
23241;BME280;11789;53.482;9.862;2023-09-30T10:10:18;102515.75;;;15.14;100.00
23241;BME280;11789;53.482;9.862;2023-09-30T10:12:45;102524.44;;;15.13;100.00
23241;BME280;11789;53.482;9.862;2023-09-30T10:18:11;102512.28;;;15.15;100.00
23241;BME280;11789;53.482;9.862;2023-09-30T10:20:42;102523.59;;;15.17;100.00
23241;BME280;11789;53.482;9.862;2023-09-30T10:23:29;102523.59;;;15.17;100.00
23241;BME280;11789;53.482;9.862;2023-09-30T10:28:43;102540.16;;;15.23;100.00
23241;BME280;11789;53.482;9.862;2023-09-30T10:31:20;102546.25;;;15.27;100.00
23241;BME280;11789;53.482;9.862;2023-09-30T10:36:31;102559.31;;;15.35;100.00
23241;BME280;11789;53.482;9.862;2023-09-30T10:38:58;102553.28;;;15.37;100.00
23241;BME280;11789;53.482;9.862;2023-09-30T10:41:53;102553.28;;;15.37;100.00
23241;BME280;11789;53.482;9.862;2023-09-30T10:46:57;102557.66;;;15.43;100.00
23241;BME280;11789;53.482;9.862;2023-09-30T10:51:52;102556.81;;;15.50;100.00
23241;BME280;11789;53.482;9.862;2023-09-30T10:54:25;102554.22;;;15.53;100.00
23241;BME280;11789;53.482;9.862;2023-09-30T10:56:51;102549.91;;;15.56;100.00
23241;BME280;11789;53.482;9.862;2023-09-30T10:59:24;102554.28;;;15.62;100.00
23241;BME280;11789;53.482;9.862;2023-09-30T11:01:50;102546.50;;;15.65;100.00
23241;BME280;11789;53.482;9.862;2023-09-30T11:04:17;102546.53;;;15.68;100.00
23241;BME280;11789;53.482;9.862;2023-09-30T11:06:43;102551.78;;;15.71;100.00
23241;BME280;11789;53.482;9.862;2023-09-30T11:09:15;102555.25;;;15.73;100.00
23241;BME280;11789;53.482;9.862;2023-09-30T11:11:44;102554.41;;;15.80;100.00
23241;BME280;11789;53.482;9.862;2023-09-30T11:14:30;102565.72;;;15.82;100.00
23241;BME280;11789;53.482;9.862;2023-09-30T11:17:03;102552.69;;;15.82;100.00
23241;BME280;11789;53.482;9.862;2023-09-30T11:19:57;102550.94;;;15.85;100.00
23241;BME280;11789;53.482;9.862;2023-09-30T11:22:23;102557.91;;;15.84;100.00
23241;BME280;11789;53.482;9.862;2023-09-30T11:24:48;102549.19;;;15.80;100.00
23241;BME280;11789;53.482;9.862;2023-09-30T11:27:22;102553.56;;;15.81;100.00
23241;BME280;11789;53.482;9.862;2023-09-30T11:29:49;102544.84;;;15.82;100.00
23241;BME280;11789;53.482;9.862;2023-09-30T11:32:28;102553.56;;;15.83;100.00
23241;BME280;11789;53.482;9.862;2023-09-30T11:34:54;102554.41;;;15.85;100.00
23241;BME280;11789;53.482;9.862;2023-09-30T11:37:19;102542.28;;;15.89;99.57
23241;BME280;11789;53.482;9.862;2023-09-30T11:39:47;102544.03;;;15.93;100.00
23241;BME280;11789;53.482;9.862;2023-09-30T11:42:17;102542.31;;;15.98;100.00
23241;BME280;11789;53.482;9.862;2023-09-30T11:44:47;102545.78;;;16.00;100.00
23241;BME280;11789;53.482;9.862;2023-09-30T11:47:13;102536.22;;;16.05;98.31
23241;BME280;11789;53.482;9.862;2023-09-30T11:49:42;102549.28;;;16.11;97.35
23241;BME280;11789;53.482;9.862;2023-09-30T11:52:13;102541.47;;;16.08;98.43
23241;BME280;11789;53.482;9.862;2023-09-30T11:54:44;102543.19;;;16.04;98.77
23241;BME280;11789;53.482;9.862;2023-09-30T11:57:17;102553.59;;;16.01;94.74
23241;BME280;11789;53.482;9.862;2023-09-30T11:59:47;102544.91;;;16.01;92.66
23241;BME280;11789;53.482;9.862;2023-09-30T12:02:16;102554.50;;;16.02;94.00
23241;BME280;11789;53.482;9.862;2023-09-30T12:04:45;102542.28;;;15.96;95.53
23241;BME280;11789;53.482;9.862;2023-09-30T12:07:12;102541.41;;;15.96;96.55
23241;BME280;11789;53.482;9.862;2023-09-30T12:09:38;102544.03;;;15.94;96.69
23241;BME280;11789;53.482;9.862;2023-09-30T12:12:05;102551.87;;;15.97;95.76
23241;BME280;11789;53.482;9.862;2023-09-30T12:14:34;102543.19;;;16.00;94.17
23241;BME280;11789;53.482;9.862;2023-09-30T12:17:00;102533.59;;;16.00;93.29
23241;BME280;11789;53.482;9.862;2023-09-30T12:19:25;102530.16;;;16.06;93.91
23241;BME280;11789;53.482;9.862;2023-09-30T12:21:51;102528.41;;;16.11;94.22
23241;BME280;11789;53.482;9.862;2023-09-30T12:24:18;102528.47;;;16.17;94.21
23241;BME280;11789;53.482;9.862;2023-09-30T12:26:49;102530.19;;;16.18;94.09
23241;BME280;11789;53.482;9.862;2023-09-30T12:29:15;102528.47;;;16.19;94.27
23241;BME280;11789;53.482;9.862;2023-09-30T12:31:53;102529.31;;;16.21;92.38
23241;BME280;11789;53.482;9.862;2023-09-30T12:34:18;102531.94;;;16.27;93.95
23241;BME280;11789;53.482;9.862;2023-09-30T12:36:44;102535.44;;;16.30;92.66
23241;BME280;11789;53.482;9.862;2023-09-30T12:39:10;102529.34;;;16.31;91.65
23241;BME280;11789;53.482;9.862;2023-09-30T12:41:40;102531.97;;;16.33;92.57
23241;BME280;11789;53.482;9.862;2023-09-30T12:44:10;102525.00;;;16.37;92.61
23241;BME280;11789;53.482;9.862;2023-09-30T12:46:36;102525.03;;;16.40;89.27
23241;BME280;11789;53.482;9.862;2023-09-30T12:49:11;102534.59;;;16.44;89.64
23241;BME280;11789;53.482;9.862;2023-09-30T12:51:37;102531.13;;;16.43;90.67
23241;BME280;11789;53.482;9.862;2023-09-30T12:54:03;102529.34;;;16.42;90.50